Time;durP1;ratioP1;P1;durP2;ratioP2;P2;SDS_P1;SDS_P2;PMS_P1;PMS_P2;Temp;Humidity;BMP_temperature;BMP_pressure;BME280_temperature;BME280_humidity;BME280_pressure;Samples;Min_cycle;Max_cycle;Signal;HPM_P1;HPM_P2
2020/12/18 00:01:31;;;;;;;15.38;10.32;;;;;;;2.62;83.39;101478.20;1786162;79;21079;-78
2020/12/18 00:03:59;;;;;;;20.55;12.60;;;;;;;2.62;83.21;101476.91;1757908;80;21005;-78
2020/12/18 00:06:35;;;;;;;18.23;11.73;;;;;;;2.64;83.09;101477.77;1786204;79;20926;-78
2020/12/18 00:09:05;;;;;;;14.15;11.08;;;;;;;2.64;83.10;101472.62;1786234;80;21246;-77
2020/12/18 00:11:33;;;;;;;15.08;11.48;;;;;;;2.65;83.07;101475.20;1786138;80;20973;-77
2020/12/18 00:14:02;;;;;;;17.00;11.65;;;;;;;2.64;83.06;101478.63;1786148;80;20977;-77
2020/12/18 00:16:32;;;;;;;15.63;11.33;;;;;;;2.63;83.08;101482.05;1786126;80;21503;-77
2020/12/18 00:19:00;;;;;;;15.08;11.08;;;;;;;2.63;83.09;101478.63;1786228;79;21001;-77
2020/12/18 00:21:28;;;;;;;12.68;10.28;;;;;;;2.63;83.08;101485.05;1786118;79;21131;-77
2020/12/18 00:23:56;;;;;;;15.03;10.38;;;;;;;2.65;82.89;101479.48;1786195;80;21460;-78
2020/12/18 00:26:25;;;;;;;16.93;11.73;;;;;;;2.67;82.76;101474.77;1786221;79;20997;-78
2020/12/18 00:28:53;;;;;;;16.23;11.95;;;;;;;2.70;82.43;101474.34;1786081;79;21055;-78
2020/12/18 00:31:26;;;;;;;17.15;11.83;;;;;;;2.73;82.32;101481.63;1786128;79;21032;-78
2020/12/18 00:33:55;;;;;;;17.17;12.07;;;;;;;2.75;82.19;101480.34;1786157;79;21189;-77
2020/12/18 00:36:25;;;;;;;15.65;11.03;;;;;;;2.73;82.02;101472.62;1786123;79;21020;-75
2020/12/18 00:38:53;;;;;;;15.88;11.12;;;;;;;2.67;82.04;101473.91;1786183;79;21440;-77
2020/12/18 00:41:21;;;;;;;15.30;11.28;;;;;;;2.63;82.25;101476.05;1786095;80;21040;-76
2020/12/18 00:43:49;;;;;;;16.90;10.75;;;;;;;2.60;82.44;101478.20;1786156;79;20922;-76
2020/12/18 00:46:18;;;;;;;14.18;10.88;;;;;;;2.59;82.56;101473.05;1786232;80;22001;-76
2020/12/18 00:48:47;;;;;;;16.30;10.15;;;;;;;2.57;82.59;101471.77;1786031;79;20957;-77
2020/12/18 00:51:17;;;;;;;13.20;9.83;;;;;;;2.55;82.70;101467.05;1786159;80;20965;-73
2020/12/18 00:53:46;;;;;;;15.38;10.48;;;;;;;2.53;82.71;101464.05;1783589;79;20934;-74
2020/12/18 00:56:15;;;;;;;17.45;10.58;;;;;;;2.50;82.82;101463.63;1774858;80;20997;-73
2020/12/18 00:58:44;;;;;;;13.58;10.43;;;;;;;2.46;82.89;101463.19;1774808;80;21352;-73
2020/12/18 01:01:12;;;;;;;13.53;9.80;;;;;;;2.43;83.05;101460.62;1774712;80;21005;-77
2020/12/18 01:03:42;;;;;;;13.78;10.43;;;;;;;2.40;83.18;101461.90;1774812;80;21013;-77
2020/12/18 01:06:12;;;;;;;12.00;9.80;;;;;;;2.38;83.39;101464.08;1774818;80;20937;-76
2020/12/18 01:08:43;;;;;;;15.00;10.18;;;;;;;2.37;83.47;101453.36;1769794;79;21005;-76
2020/12/18 01:11:12;;;;;;;13.43;9.50;;;;;;;2.34;83.49;101451.22;1774802;80;21226;-76
2020/12/18 01:13:41;;;;;;;13.22;9.78;;;;;;;2.30;83.57;101453.36;1774823;80;21040;-77
2020/12/18 01:16:12;;;;;;;12.40;9.48;;;;;;;2.27;83.77;101456.34;1774796;79;20930;-76
2020/12/18 01:18:42;;;;;;;12.00;9.38;;;;;;;2.27;83.80;101453.78;1774394;80;21005;-76
2020/12/18 01:21:12;;;;;;;12.78;9.65;;;;;;;2.26;83.84;101451.64;1749769;80;21001;-76
2020/12/18 01:23:42;;;;;;;13.98;10.82;;;;;;;2.27;83.91;101453.78;1774807;80;21132;-77
2020/12/18 01:26:12;;;;;;;13.95;10.75;;;;;;;2.25;83.76;101447.78;1774704;79;21579;-76
2020/12/18 01:28:41;;;;;;;13.13;9.98;;;;;;;2.20;83.86;101445.20;1774707;79;21029;-76
2020/12/18 01:31:09;;;;;;;14.80;10.93;;;;;;;2.17;83.94;101442.63;1774807;80;20934;-76
2020/12/18 01:33:38;;;;;;;13.68;10.25;;;;;;;2.12;84.06;101448.62;1774817;80;20942;-76
2020/12/18 01:36:08;;;;;;;15.78;10.85;;;;;;;2.07;84.16;101444.75;1774285;80;21192;-77
2020/12/18 01:38:38;;;;;;;15.50;10.38;;;;;;;2.02;84.41;101446.46;1774681;80;21555;-77
2020/12/18 01:41:08;;;;;;;13.65;10.65;;;;;;;2.00;84.63;101448.17;1774779;80;20891;-77
2020/12/18 01:43:37;;;;;;;15.08;10.98;;;;;;;1.99;84.75;101449.91;1774782;80;21464;-77
2020/12/18 01:46:13;;;;;;;14.03;11.15;;;;;;;1.97;84.80;101448.19;1774923;80;21491;-77
2020/12/18 01:48:43;;;;;;;17.12;11.03;;;;;;;1.96;85.06;101449.05;1753419;80;21189;-76
2020/12/18 01:51:12;;;;;;;15.55;11.43;;;;;;;1.95;85.03;101445.62;1774665;79;21069;-77
2020/12/18 01:53:40;;;;;;;17.07;12.10;;;;;;;1.95;85.10;101443.05;1774904;80;20938;-76
2020/12/18 01:56:10;;;;;;;15.28;11.08;;;;;;;1.94;85.14;101442.63;1784822;80;21479;-77
2020/12/18 01:58:40;;;;;;;15.88;11.70;;;;;;;1.93;85.17;101440.91;1786137;79;20929;-76
2020/12/18 02:01:12;;;;;;;18.20;12.37;;;;;;;1.89;85.13;101440.47;1786082;80;21133;-77
2020/12/18 02:03:42;;;;;;;16.97;11.28;;;;;;;1.85;85.34;101440.03;1784430;80;21444;-77
2020/12/18 02:06:17;;;;;;;18.20;11.73;;;;;;;1.86;85.47;101436.61;1785685;80;20993;-77
2020/12/18 02:08:50;;;;;;;18.75;12.03;;;;;;;1.86;85.56;101432.76;1785528;80;21009;-77
2020/12/18 02:11:29;;;;;;;17.05;11.63;;;;;;;1.86;85.67;101430.19;1775513;80;20933;-76
2020/12/18 02:13:59;;;;;;;20.32;12.82;;;;;;;1.89;85.72;101435.77;1786022;79;21184;-77
2020/12/18 02:16:30;;;;;;;19.60;12.75;;;;;;;1.89;85.72;101430.20;1786034;80;20961;-77
2020/12/18 02:19:00;;;;;;;19.25;13.15;;;;;;;1.88;85.72;101432.33;1734263;80;21001;-77
2020/12/18 02:21:36;;;;;;;20.02;14.10;;;;;;;1.87;85.80;101427.19;1786089;79;21179;-78
2020/12/18 02:24:06;;;;;;;19.90;14.00;;;;;;;1.85;85.95;101429.76;1786468;80;21377;-78
2020/12/18 02:26:34;;;;;;;23.87;15.08;;;;;;;1.88;85.95;101427.63;1786097;80;22137;-77
2020/12/18 02:29:03;;;;;;;24.47;14.98;;;;;;;1.87;85.98;101431.91;1786051;79;21543;-77
2020/12/18 02:31:33;;;;;;;24.80;16.12;;;;;;;1.84;86.06;101423.33;1785640;80;20993;-78
2020/12/18 02:34:03;;;;;;;24.47;15.28;;;;;;;1.83;86.18;101427.61;1781753;80;20974;-78
2020/12/18 02:36:34;;;;;;;21.42;14.80;;;;;;;1.81;86.27;101419.05;1786066;80;21582;-78
2020/12/18 02:39:04;;;;;;;23.55;15.55;;;;;;;1.83;86.31;101425.47;1786069;79;22026;-74
2020/12/18 02:41:34;;;;;;;20.80;14.38;;;;;;;1.80;86.32;101418.61;1785991;80;21008;-73
2020/12/18 02:44:07;;;;;;;23.87;15.72;;;;;;;1.79;86.41;101423.32;1785089;80;21350;-77
2020/12/18 02:46:38;;;;;;;24.52;16.12;;;;;;;1.78;86.52;101430.59;1786022;79;21083;-77
2020/12/18 02:49:07;;;;;;;23.62;15.72;;;;;;;1.80;86.58;101426.75;1757533;80;21075;-76
2020/12/18 02:51:43;;;;;;;28.27;15.70;;;;;;;1.82;86.56;101425.04;1785578;80;21432;-78
2020/12/18 02:54:18;;;;;;;;;;;;;;;1.84;86.52;101425.48;1771434;79;20989;-77
2020/12/18 02:56:54;;;;;;;24.95;16.27;;;;;;;1.84;86.59;101427.19;1773968;79;20120;-77
2020/12/18 02:59:39;;;;;;;26.60;16.80;;;;;;;1.86;86.68;101435.75;1772964;80;20930;-77
2020/12/18 03:02:07;;;;;;;24.45;15.85;;;;;;;1.86;86.65;101437.89;1774816;80;20986;-77
2020/12/18 03:04:36;;;;;;;24.85;16.52;;;;;;;1.88;86.61;101445.17;1774921;80;21531;-77
2020/12/18 03:07:06;;;;;;;28.75;16.35;;;;;;;1.89;86.57;101441.75;1774245;80;20946;-77
2020/12/18 03:09:35;;;;;;;25.70;16.07;;;;;;;1.91;86.50;101441.33;1774937;80;20993;-78
2020/12/18 03:12:06;;;;;;;28.00;16.90;;;;;;;1.91;86.53;101437.48;1775002;80;21440;-77
2020/12/18 03:14:34;;;;;;;24.18;16.12;;;;;;;1.90;86.48;101438.33;1774930;80;21041;-73
2020/12/18 03:17:07;;;;;;;27.37;17.45;;;;;;;1.92;86.50;101439.62;1771707;80;21933;-73
2020/12/18 03:19:37;;;;;;;26.45;16.77;;;;;;;1.93;86.45;101435.77;1773147;80;20965;-74
2020/12/18 03:22:10;;;;;;;24.95;16.73;;;;;;;1.94;86.42;101445.62;1773660;80;20930;-73
2020/12/18 03:24:40;;;;;;;22.52;15.75;;;;;;;1.94;86.38;101439.20;1771486;80;20938;-74
2020/12/18 03:27:27;;;;;;;25.25;16.00;;;;;;;1.94;86.29;101444.33;1774914;79;20926;-74
2020/12/18 03:29:57;;;;;;;75.25;33.08;;;;;;;1.90;86.19;101440.05;1774119;80;21198;-77
2020/12/18 03:32:27;;;;;;;149.30;58.98;;;;;;;1.83;86.29;101438.31;1774824;80;20922;-76
2020/12/18 03:35:05;;;;;;;126.22;51.08;;;;;;;1.78;86.50;101439.58;1774146;80;20986;-77
2020/12/18 03:37:35;;;;;;;91.17;38.60;;;;;;;1.77;86.70;101442.14;1774747;80;20937;-78
2020/12/18 03:40:05;;;;;;;90.12;36.90;;;;;;;1.77;86.82;101435.72;1774916;80;21017;-78
2020/12/18 03:42:35;;;;;;;60.25;27.90;;;;;;;1.77;86.79;101437.87;1774432;80;21582;-78
2020/12/18 03:45:03;;;;;;;45.63;24.55;;;;;;;1.78;86.84;101440.01;1774828;80;20974;-79
2020/12/18 03:47:45;;;;;;;32.58;19.00;;;;;;;1.79;86.88;101440.44;1773843;80;21587;-78
2020/12/18 03:50:15;;;;;;;29.35;18.20;;;;;;;1.80;86.89;101437.88;1761217;80;21548;-73
2020/12/18 03:52:47;;;;;;;32.58;18.40;;;;;;;1.81;86.85;101435.73;1774843;79;20922;-76
2020/12/18 03:55:16;;;;;;;28.23;18.60;;;;;;;1.83;86.80;101440.87;1778716;79;21357;-76
2020/12/18 03:58:03;;;;;;;25.48;16.97;;;;;;;1.84;86.81;101440.88;1786110;79;20992;-75
2020/12/18 04:00:33;;;;;;;27.07;18.27;;;;;;;1.85;86.74;101440.03;1777623;80;20981;-75
2020/12/18 04:03:03;;;;;;;28.98;17.62;;;;;;;1.86;86.72;101440.46;1785450;80;20989;-75
2020/12/18 04:05:33;;;;;;;24.80;17.20;;;;;;;1.86;86.68;101439.17;1786169;79;21012;-75
2020/12/18 04:08:01;;;;;;;25.52;17.42;;;;;;;1.87;86.62;101437.04;1786135;79;21193;-75
2020/12/18 04:10:41;;;;;;;25.77;16.77;;;;;;;1.88;86.66;101440.04;1775401;80;21005;-75
2020/12/18 04:13:29;;;;;;;28.00;17.85;;;;;;;1.87;86.67;101438.33;1755097;81;20953;-75
2020/12/18 04:16:01;;;;;;;26.55;16.97;;;;;;;1.86;86.69;101439.17;1755090;81;21095;-75
2020/12/18 04:18:29;;;;;;;26.97;17.37;;;;;;;1.88;86.74;101440.47;1767328;80;20930;-75
2020/12/18 04:21:02;;;;;;;28.47;18.37;;;;;;;1.86;86.72;101436.61;1758293;80;22092;-75
2020/12/18 04:23:38;;;;;;;30.97;20.77;;;;;;;1.86;86.81;101443.45;1785451;80;21471;-75
2020/12/18 04:26:16;;;;;;;29.05;19.07;;;;;;;1.86;86.74;101440.46;1760415;80;20925;-75
2020/12/18 04:28:46;;;;;;;30.60;18.62;;;;;;;1.86;86.76;101439.60;1786172;79;21446;-75
2020/12/18 04:31:15;;;;;;;26.62;18.40;;;;;;;1.87;86.71;101443.89;1786066;80;20997;-75
2020/12/18 04:33:44;;;;;;;26.35;18.40;;;;;;;1.86;86.69;101443.03;1757537;80;21257;-74
2020/12/18 04:36:13;;;;;;;28.17;17.73;;;;;;;1.87;86.69;101435.76;1757816;80;21527;-74
2020/12/18 04:38:42;;;;;;;28.05;17.87;;;;;;;1.87;86.67;101439.61;1786130;79;21033;-74
2020/12/18 04:41:12;;;;;;;28.10;19.35;;;;;;;1.88;86.61;101438.75;1784790;80;20965;-75
2020/12/18 04:43:45;;;;;;;29.07;19.82;;;;;;;1.90;86.55;101437.47;1785976;79;20957;-75
2020/12/18 04:46:17;;;;;;;27.13;18.32;;;;;;;1.90;86.65;101442.19;1785744;80;22298;-75
2020/12/18 04:48:47;;;;;;;27.70;18.70;;;;;;;1.92;86.72;101437.05;1786061;80;20945;-75
2020/12/18 04:51:23;;;;;;;28.05;19.02;;;;;;;1.91;86.76;101438.77;1786187;80;20901;-75
2020/12/18 04:53:54;;;;;;;26.87;17.67;;;;;;;1.93;86.64;101437.05;1785653;80;20961;-75
2020/12/18 04:56:30;;;;;;;31.55;22.50;;;;;;;1.96;86.54;101435.78;1785572;79;20977;-76
2020/12/18 04:59:00;;;;;;;27.93;19.32;;;;;;;1.97;86.38;101441.34;1785191;80;21369;-80
2020/12/18 05:01:33;;;;;;;27.30;18.10;;;;;;;1.96;86.46;101438.77;1781860;80;21017;-74
2020/12/18 05:04:03;;;;;;;27.17;17.45;;;;;;;1.97;86.93;101446.91;1785913;79;20965;-75
2020/12/18 05:06:35;;;;;;;30.35;18.62;;;;;;;1.97;86.86;101440.06;1786059;80;20980;-75
2020/12/18 05:09:04;;;;;;;27.40;17.15;;;;;;;1.97;86.65;101446.48;1786157;79;21012;-75
2020/12/18 05:11:32;;;;;;;27.45;17.50;;;;;;;1.97;86.53;101445.20;1786049;80;21429;-75
2020/12/18 05:14:02;;;;;;;24.52;17.87;;;;;;;1.95;86.61;101442.20;1785645;80;20985;-74
2020/12/18 05:16:32;;;;;;;36.03;22.15;;;;;;;1.94;86.80;101445.62;1786153;80;20980;-74
2020/12/18 05:19:04;;;;;;;34.65;23.67;;;;;;;1.95;86.90;101446.05;1786069;80;20963;-75
2020/12/18 05:21:35;;;;;;;32.58;18.98;;;;;;;1.95;86.89;101437.06;1766568;80;21017;-74
2020/12/18 05:24:05;;;;;;;34.50;20.00;;;;;;;1.96;86.67;101442.20;1785810;79;21570;-74
2020/12/18 05:26:35;;;;;;;31.30;19.73;;;;;;;1.97;86.44;101443.91;1785300;80;21443;-74
2020/12/18 05:29:09;;;;;;;45.50;28.40;;;;;;;1.94;86.37;101443.91;1733275;80;20984;-74
2020/12/18 05:31:58;;;;;;;37.45;24.27;;;;;;;1.94;86.44;101449.47;1785998;80;21029;-75
2020/12/18 05:34:28;;;;;;;33.65;20.45;;;;;;;1.93;86.42;101447.33;1785325;80;20937;-76
2020/12/18 05:37:01;;;;;;;26.23;17.30;;;;;;;1.92;86.37;101453.31;1784413;80;21867;-75
2020/12/18 05:39:34;;;;;;;29.05;17.50;;;;;;;1.92;86.25;101453.31;1778105;80;21016;-76
2020/12/18 05:42:02;;;;;;;21.52;14.98;;;;;;;1.90;86.28;101459.30;1786743;80;21432;-76
2020/12/18 05:44:32;;;;;;;28.73;18.77;;;;;;;1.87;86.25;101457.59;1785748;80;20968;-75
2020/12/18 05:47:20;;;;;;;30.65;22.62;;;;;;;1.86;86.23;101458.86;1755022;81;20925;-75
2020/12/18 05:49:49;;;;;;;28.17;19.57;;;;;;;1.83;86.28;101459.72;1755060;81;22060;-75
2020/12/18 05:52:32;;;;;;;26.82;20.52;;;;;;;1.87;86.36;101463.15;1806239;77;22533;-75
2020/12/18 05:55:03;;;;;;;27.25;19.70;;;;;;;1.81;86.33;101458.85;1802130;77;20937;-76
2020/12/18 05:57:39;;;;;;;27.77;19.25;;;;;;;1.80;86.46;101459.70;1801760;79;21193;-78
2020/12/18 06:00:06;;;;;;;25.02;15.72;;;;;;;1.81;86.56;101456.71;1802637;78;20969;-76
2020/12/18 06:02:54;;;;;;;24.12;17.50;;;;;;;1.82;86.58;101464.84;1783897;79;21452;-74
2020/12/18 06:05:26;;;;;;;23.60;14.20;;;;;;;1.82;86.66;101461.85;1779948;78;21068;-77
2020/12/18 06:07:56;;;;;;;19.52;13.95;;;;;;;1.84;86.53;101460.15;1784497;77;21040;-72
2020/12/18 06:10:30;;;;;;;26.73;16.67;;;;;;;1.85;86.58;101464.43;1830152;77;21092;-75
2020/12/18 06:13:15;;;;;;;18.50;13.70;;;;;;;1.88;86.44;101465.72;1771048;79;21034;-74
2020/12/18 06:15:51;;;;;;;16.95;12.98;;;;;;;1.91;86.29;101470.02;1798607;79;21003;-79
2020/12/18 06:18:22;;;;;;;21.33;16.93;;;;;;;1.91;86.02;101469.59;1800685;79;21023;-75
2020/12/18 06:20:50;;;;;;;34.85;24.30;;;;;;;1.92;85.87;101465.30;1791649;79;21050;-76
2020/12/18 06:23:20;;;;;;;28.17;21.25;;;;;;;1.90;85.78;101465.30;1798817;78;21365;-77
2020/12/18 06:25:59;;;;;;;46.33;28.20;;;;;;;1.89;85.80;101467.86;1718935;83;21013;-75
2020/12/18 06:28:48;;;;;;;55.70;33.20;;;;;;;1.87;85.71;101470.42;1719015;82;21001;-74
2020/12/18 06:31:25;;;;;;;68.30;39.55;;;;;;;1.86;85.75;101472.99;1728478;81;21146;-75
2020/12/18 06:34:29;;;;;;;60.88;36.63;;;;;;;1.90;85.73;101475.58;1882475;74;22815;-75
2020/12/18 06:37:08;;;;;;;55.60;33.65;;;;;;;1.84;85.73;101476.84;1823536;78;21610;-75
2020/12/18 06:39:54;;;;;;;48.85;31.02;;;;;;;1.84;85.90;101474.70;1826083;77;22179;-73
2020/12/18 06:42:28;;;;;;;24.02;15.90;;;;;;;1.86;85.93;101475.56;1813925;78;21009;-79
2020/12/18 06:45:03;;;;;;;30.55;18.62;;;;;;;1.88;85.62;101480.28;1757730;78;21072;-77
2020/12/18 06:47:34;;;;;;;22.00;15.55;;;;;;;1.87;85.45;101469.57;1839720;77;20989;-73
2020/12/18 06:50:11;;;;;;;18.57;13.00;;;;;;;1.90;85.25;101479.42;1847063;77;20950;-74
2020/12/18 06:53:08;;;;;;;15.03;11.45;;;;;;;1.92;85.05;101479.44;1847247;77;21607;-78
2020/12/18 06:55:40;;;;;;;14.80;10.82;;;;;;;1.92;84.80;101481.58;1855423;77;20893;-78
2020/12/18 06:58:30;;;;;;;13.45;10.35;;;;;;;1.92;84.58;101482.86;1828190;78;21035;-81
2020/12/18 07:01:00;;;;;;;13.95;9.88;;;;;;;1.91;84.33;101478.58;1800846;77;21792;-79
2020/12/18 07:03:37;;;;;;;12.07;9.63;;;;;;;1.91;84.24;101481.14;1825133;77;21116;-76
2020/12/18 07:06:23;;;;;;;10.50;9.20;;;;;;;1.93;84.29;101481.15;1816410;79;21572;-75
2020/12/18 07:08:51;;;;;;;13.15;9.98;;;;;;;1.95;84.20;101479.02;1821522;77;21053;-75
2020/12/18 07:11:21;;;;;;;14.85;11.57;;;;;;;1.96;84.08;101485.01;1830949;76;21021;-71
2020/12/18 07:13:52;;;;;;;27.95;22.13;;;;;;;1.96;84.12;101479.45;1819608;77;21571;-75
2020/12/18 07:16:26;;;;;;;29.82;21.82;;;;;;;1.98;84.08;101480.31;1826183;77;21034;-82
2020/12/18 07:18:58;;;;;;;23.85;14.87;;;;;;;1.99;83.92;101482.02;1767042;79;21372;-82
2020/12/18 07:21:27;;;;;;;17.35;13.30;;;;;;;2.03;83.90;101475.58;1754801;80;21020;-85
2020/12/18 07:23:55;;;;;;;18.32;13.80;;;;;;;2.04;83.72;101482.00;1757452;80;21056;-74
2020/12/18 07:26:23;;;;;;;15.63;11.88;;;;;;;2.05;83.68;101480.30;1766510;80;20966;-75
2020/12/18 07:28:52;;;;;;;17.00;13.10;;;;;;;2.06;83.53;101485.44;1771542;80;20946;-73
2020/12/18 07:31:25;;;;;;;18.32;13.60;;;;;;;2.07;83.51;101487.58;1766918;79;21641;-72
2020/12/18 07:33:57;;;;;;;16.80;11.65;;;;;;;2.07;83.49;101491.00;1779825;80;21021;-74
2020/12/18 07:36:29;;;;;;;18.25;13.45;;;;;;;2.07;83.28;101492.28;1763256;80;21571;-73
2020/12/18 07:38:58;;;;;;;30.35;19.62;;;;;;;2.07;83.26;101492.28;1746838;82;21393;-69
2020/12/18 07:41:27;;;;;;;34.88;24.18;;;;;;;2.08;83.31;101491.44;1755151;80;21634;-70
2020/12/18 07:44:07;;;;;;;22.93;16.32;;;;;;;2.08;83.34;101483.73;1747798;80;21371;-71
2020/12/18 07:46:36;;;;;;;26.55;18.70;;;;;;;2.09;83.46;101485.44;1762019;80;21034;-73
2020/12/18 07:49:10;;;;;;;35.05;22.30;;;;;;;2.11;83.23;101485.45;1754124;80;21180;-73
2020/12/18 07:51:39;;;;;;;24.67;15.80;;;;;;;2.09;83.00;101484.16;1758747;80;21228;-75
2020/12/18 07:54:08;;;;;;;20.75;14.98;;;;;;;2.06;82.86;101481.58;1769426;80;21103;-69
2020/12/18 07:56:38;;;;;;;16.02;12.23;;;;;;;2.05;82.90;101476.44;1759451;80;21204;-73
2020/12/18 07:59:12;;;;;;;13.85;10.58;;;;;;;2.04;82.82;101483.72;1766405;80;21021;-73
2020/12/18 08:01:54;;;;;;;22.35;17.75;;;;;;;2.04;82.65;101482.00;1725272;81;21053;-78
2020/12/18 08:04:23;;;;;;;22.30;16.85;;;;;;;2.00;82.73;101482.42;1744710;82;21126;-73
2020/12/18 08:06:52;;;;;;;29.15;19.30;;;;;;;1.98;82.84;101476.45;1747599;80;21081;-71
2020/12/18 08:09:21;;;;;;;30.35;21.17;;;;;;;1.98;82.96;101481.59;1745688;80;21370;-76
2020/12/18 08:11:52;;;;;;;23.60;16.80;;;;;;;1.98;83.09;101484.16;1759616;80;21084;-70
2020/12/18 08:14:22;;;;;;;20.70;15.45;;;;;;;1.99;83.19;101477.31;1776535;80;21259;-75
2020/12/18 08:16:50;;;;;;;15.83;13.88;;;;;;;2.01;83.22;101469.15;1755850;80;21099;-78
2020/12/18 08:19:20;;;;;;;14.80;13.00;;;;;;;2.02;83.17;101473.44;1746741;82;21034;-71
2020/12/18 08:21:49;;;;;;;17.77;13.32;;;;;;;2.04;83.14;101470.87;1746526;82;21368;-72
2020/12/18 08:24:30;;;;;;;14.68;12.25;;;;;;;2.05;83.10;101471.30;1746723;82;21661;-69
2020/12/18 08:27:22;;;;;;;14.33;11.93;;;;;;;2.05;83.15;101470.02;1761335;80;21595;-70
2020/12/18 08:29:52;;;;;;;15.90;12.90;;;;;;;2.05;83.25;101472.58;1776905;80;21124;-71
2020/12/18 08:32:27;;;;;;;15.90;12.60;;;;;;;2.05;83.23;101466.16;1727442;80;20962;-70
2020/12/18 08:35:01;;;;;;;16.30;13.53;;;;;;;2.06;83.41;101467.45;1750977;80;22018;-71
2020/12/18 08:37:30;;;;;;;17.32;14.33;;;;;;;2.06;83.48;101472.59;1775441;80;21662;-74
2020/12/18 08:39:58;;;;;;;17.75;14.95;;;;;;;2.09;83.60;101475.16;1766272;80;20943;-71
2020/12/18 08:42:27;;;;;;;18.15;13.98;;;;;;;2.10;83.62;101470.88;1746962;82;21037;-71
2020/12/18 08:44:55;;;;;;;17.50;14.03;;;;;;;2.10;83.63;101471.74;1747212;80;21065;-70
2020/12/18 08:47:26;;;;;;;39.33;27.07;;;;;;;2.10;83.49;101460.18;1709976;80;21211;-70
2020/12/18 08:49:56;;;;;;;14.23;12.10;;;;;;;2.11;83.54;101467.46;1840349;78;21005;-70
2020/12/18 08:52:28;;;;;;;13.45;10.60;;;;;;;2.11;83.09;101469.60;1770168;81;21045;-68
2020/12/18 08:55:07;;;;;;;11.22;10.00;;;;;;;2.07;82.86;101457.60;1740511;80;21012;-68
2020/12/18 08:57:38;;;;;;;10.60;9.05;;;;;;;2.06;82.67;101449.47;1764317;80;21101;-70
2020/12/18 09:00:14;;;;;;;12.75;11.05;;;;;;;2.01;82.20;101455.88;1802724;79;21651;-71
2020/12/18 09:02:51;;;;;;;9.68;8.60;;;;;;;1.98;82.14;101455.05;1802225;79;21033;-75
2020/12/18 09:05:33;;;;;;;8.50;7.50;;;;;;;1.96;82.29;101451.19;1801732;79;21436;-71
2020/12/18 09:08:06;;;;;;;9.98;8.68;;;;;;;1.96;82.38;101453.76;1801352;79;21058;-66
2020/12/18 09:10:41;;;;;;;8.58;7.67;;;;;;;1.96;82.10;101452.90;1805934;78;21020;-72
2020/12/18 09:13:16;;;;;;;9.43;8.50;;;;;;;1.95;81.98;101453.33;1803750;78;21261;-75
2020/12/18 09:15:49;;;;;;;12.23;10.75;;;;;;;1.96;82.08;101458.04;1801794;79;21077;-75
2020/12/18 09:18:24;;;;;;;13.85;10.40;;;;;;;1.95;82.05;101451.19;1771465;79;21033;-75
2020/12/18 09:20:53;;;;;;;10.23;9.13;;;;;;;1.97;81.99;101451.63;1786523;79;21073;-71
2020/12/18 09:23:32;;;;;;;11.63;8.35;;;;;;;2.01;81.91;101452.45;1773059;79;20990;-73
2020/12/18 09:26:02;;;;;;;12.00;10.45;;;;;;;2.01;81.81;101452.02;1770972;81;22108;-74
2020/12/18 09:28:39;;;;;;;13.15;11.25;;;;;;;2.03;81.90;101455.02;1787025;80;21129;-72
2020/12/18 09:31:08;;;;;;;13.38;11.97;;;;;;;2.04;81.86;101450.31;1770314;81;20946;-79
2020/12/18 09:33:39;;;;;;;11.95;10.78;;;;;;;2.03;81.77;101448.60;1766434;80;21078;-74
2020/12/18 09:36:12;;;;;;;12.33;11.03;;;;;;;2.01;81.81;101452.02;1789111;79;20962;-69
2020/12/18 09:38:47;;;;;;;13.53;11.00;;;;;;;1.98;81.98;101448.62;1781604;78;21184;-70
2020/12/18 09:41:19;;;;;;;12.33;11.03;;;;;;;1.98;82.25;101443.48;1781242;80;21015;-71
2020/12/18 09:43:48;;;;;;;10.98;9.85;;;;;;;2.01;82.43;101444.74;1799392;78;21053;-69
2020/12/18 09:46:18;;;;;;;14.68;11.75;;;;;;;2.05;83.08;101446.89;1759138;80;21086;-71
2020/12/18 09:48:47;;;;;;;15.83;12.03;;;;;;;2.07;82.89;101444.75;1796045;79;20926;-69
2020/12/18 09:51:16;;;;;;;15.30;12.58;;;;;;;2.08;82.62;101442.62;1810949;78;21232;-71
2020/12/18 09:53:45;;;;;;;16.95;11.55;;;;;;;2.06;82.52;101441.76;1785785;79;21101;-68
2020/12/18 09:56:14;;;;;;;16.70;12.78;;;;;;;2.05;82.53;101446.47;1781798;80;21652;-72
2020/12/18 09:58:43;;;;;;;17.62;12.05;;;;;;;2.05;82.73;101439.19;1805557;78;21045;-71
2020/12/18 10:01:23;;;;;;;14.68;11.57;;;;;;;2.05;82.71;101437.47;1782440;78;21586;-71
2020/12/18 10:03:51;;;;;;;15.72;12.82;;;;;;;2.06;82.74;101439.61;1783478;79;23019;-71
2020/12/18 10:06:27;;;;;;;19.48;14.80;;;;;;;2.05;82.72;101434.91;1786442;78;21008;-71
2020/12/18 10:08:57;;;;;;;15.30;12.37;;;;;;;2.03;82.84;101428.91;1787314;78;21012;-70
2020/12/18 10:11:29;;;;;;;14.85;12.33;;;;;;;2.03;82.94;101426.34;1781462;79;21096;-71
2020/12/18 10:13:57;;;;;;;14.78;11.95;;;;;;;1.99;82.92;101428.08;1780888;80;21061;-71
2020/12/18 10:16:25;;;;;;;13.20;11.83;;;;;;;1.99;83.13;101424.22;1781783;80;21188;-73
2020/12/18 10:18:54;;;;;;;12.20;10.90;;;;;;;1.98;83.22;101425.50;1781552;80;21023;-72
2020/12/18 10:21:23;;;;;;;13.68;11.65;;;;;;;1.97;83.09;101423.79;1780801;80;21047;-69
2020/12/18 10:23:51;;;;;;;16.10;12.23;;;;;;;1.94;83.22;101424.64;1805597;78;21737;-69
2020/12/18 10:26:19;;;;;;;15.40;12.35;;;;;;;1.92;83.31;101420.36;1813106;79;20977;-71
2020/12/18 10:28:47;;;;;;;16.10;13.18;;;;;;;1.90;83.48;101424.20;1812820;79;21362;-69
2020/12/18 10:31:17;;;;;;;15.75;13.75;;;;;;;1.88;83.61;101417.34;1813281;79;21209;-72
2020/12/18 10:33:46;;;;;;;17.10;14.33;;;;;;;1.88;83.82;101416.92;1799462;79;21005;-71
2020/12/18 10:36:14;;;;;;;18.20;15.20;;;;;;;1.90;83.90;101406.23;1797714;79;21629;-71
2020/12/18 10:38:43;;;;;;;23.10;18.52;;;;;;;1.91;83.97;101404.52;1799518;79;21060;-70
2020/12/18 10:41:13;;;;;;;24.25;18.77;;;;;;;1.93;84.00;101401.09;1798432;79;21138;-73
2020/12/18 10:43:42;;;;;;;23.90;17.20;;;;;;;1.94;84.06;101398.95;1798146;79;21563;-72
2020/12/18 10:46:12;;;;;;;26.00;19.02;;;;;;;1.97;84.24;101395.11;1788253;78;21052;-75
2020/12/18 10:48:42;;;;;;;20.95;15.75;;;;;;;2.03;84.38;101394.66;1764591;79;21135;-71
2020/12/18 10:51:10;;;;;;;20.57;16.32;;;;;;;2.08;84.53;101394.23;1774618;80;20902;-71
2020/12/18 10:53:39;;;;;;;28.02;20.25;;;;;;;2.14;84.51;101389.09;1812132;77;21116;-72
2020/12/18 10:56:11;;;;;;;22.42;17.05;;;;;;;2.18;84.43;101390.38;1819637;77;21013;-74
2020/12/18 10:58:40;;;;;;;20.15;15.30;;;;;;;2.19;84.47;101386.10;1814128;77;21022;-72
2020/12/18 11:01:09;;;;;;;23.92;16.45;;;;;;;2.21;84.33;101384.39;1812591;77;20989;-74
2020/12/18 11:03:37;;;;;;;29.92;21.65;;;;;;;2.23;84.37;101385.25;1819338;77;20946;-75
2020/12/18 11:06:07;;;;;;;22.55;16.20;;;;;;;2.27;84.45;101384.39;1822889;77;22213;-73
2020/12/18 11:08:36;;;;;;;20.30;15.93;;;;;;;2.29;84.23;101378.83;1781106;79;21028;-78
2020/12/18 11:11:05;;;;;;;22.00;15.63;;;;;;;2.31;84.15;101389.53;1847626;77;21067;-80
2020/12/18 11:13:34;;;;;;;24.30;18.57;;;;;;;2.33;84.03;101389.53;1860256;77;21462;-79
2020/12/18 11:16:03;;;;;;;18.10;15.50;;;;;;;2.33;83.94;101382.67;1863342;77;20993;-81
2020/12/18 11:18:34;;;;;;;17.37;14.05;;;;;;;2.35;83.83;101394.24;1863620;77;22143;-80
2020/12/18 11:21:04;;;;;;;19.17;15.20;;;;;;;2.35;83.77;101389.10;1863509;77;20985;-79
2020/12/18 11:23:35;;;;;;;13.53;11.93;;;;;;;2.31;83.58;101389.53;1863380;77;21546;-79
2020/12/18 11:26:04;;;;;;;17.17;13.15;;;;;;;2.29;83.51;101383.53;1863324;77;21745;-76
2020/12/18 11:28:32;;;;;;;15.40;13.35;;;;;;;2.26;83.64;101386.53;1863344;77;21008;-78
2020/12/18 11:31:01;;;;;;;16.95;14.35;;;;;;;2.23;83.72;101376.25;1863492;77;22135;-78
2020/12/18 11:33:29;;;;;;;17.27;13.30;;;;;;;2.21;83.83;101384.39;1863591;77;21547;-76
2020/12/18 11:35:58;;;;;;;18.25;14.43;;;;;;;2.20;83.88;101375.83;1838786;77;21124;-78
2020/12/18 11:38:29;;;;;;;17.25;13.00;;;;;;;2.21;84.05;101375.39;1818026;77;21045;-75
2020/12/18 11:40:57;;;;;;;15.58;12.63;;;;;;;2.22;84.18;101375.83;1828419;77;21620;-78